GALLO VINEYARDS WEATHER NETWORK
                           Weekly Meteorological Summary
                                Station: Claussen

              T e m p e r a t u r e   Avg   Max   Min     W  I  N   D     Total  Daily  Daily   Seas    Cont        Mildew    Min
              Max Occur   Min Occur DewPt    RH    RH   Avg   Max  Gust  SolRad    ETo Precip Precip   Hours Hours  Stress    Bat
   Date         F  Time     F  Time     F     %     %   mph   mph   Dir Cal/cm2     In     In  7/1->  70-85F  >95F     Pts  Volts
---------------------------------------------------------------------------------------------------------------------------------
  07/15/18   97.1  1706  60.8   612  55.1    80    19   5.0  16.0     W     692   0.28   0.00   0.00     4.4   1.1       0   12.5
  07/16/18   97.9  1558  58.2   554  56.3    90    20   4.0  14.3    NW     691   0.27   0.00   0.00     4.4   3.3       0   12.5
  07/17/18  100.2  1530  56.1   449  53.6    91    16   3.9  13.5    SW     706   0.28   0.00   0.00     4.2   5.6       0   12.5
  07/18/18  100.4  1540  57.8   601  60.9    95    29   3.1  11.3    NW     680   0.26   0.00   0.00     4.1   4.9       0   12.5
  07/19/18   99.9  1619  60.0   445  60.0    93    23   3.3  11.0   NNW     669   0.25   0.00   0.00     4.1   4.1       0   12.5
  07/20/18   95.1  1559  60.3   535  60.8    90    36   4.2  15.8   NNW     590   0.23   0.00   0.00     4.5   0.0       0   12.5
  07/21/18   96.6  1608  63.6   519  58.8    87    26   4.4  16.6     W     621   0.25   0.00   0.00     4.5   0.5       0   12.5

                                                                                                                                     
   Avg/Tot   98.2        59.5        57.9    89    24   4.0  14.0           664   1.82   0.00           30.2  19.6
=================================================================================================================================
  Hourly Observations
                         Dew          Hourly     Max  SolRad   Hrly   -----Since Midnight-----
                  Temp    Pt    RH  Wind  Wind  Gust   Watts   Prec   Prec    ETo  MinT   MaxT
   Date    Time      F     F     %   Dir   mph   mph     /m2     In     in     In     F      F
----------------------------------------------------------------------------------------------
  07/22/18 0300   66.8  57.1    71   NNW   2.6   7.6       0   0.00   0.00  0.002   66.8  72.5
  07/22/18 0200   69.2  56.7    64    NW   5.1  12.9       0   0.00   0.00  0.002   69.1  72.5
  07/22/18 0100   71.8  55.9    57   WNW   4.6  11.0       0   0.00   0.00  0.001   71.5  72.5
  07/22/18 0000   72.5  56.3    57     W   6.4  14.0       0   0.00   0.00  0.250   63.6  96.6
  07/21/18 2300   73.2  55.1    53     W   7.0  16.4       0   0.00   0.00  0.248   63.6  96.6
  07/21/18 2200   76.1  53.3    45     W   7.1  15.6       0   0.00   0.00  0.246   63.6  96.6
  07/21/18 2100   79.4  51.1    37     W   6.6  16.6       5   0.00   0.00  0.243   63.6  96.6
  07/21/18 2000   82.9  55.8    40     W   6.7  16.2      93   0.00   0.00  0.239   63.6  96.6
  07/21/18 1900   89.4  58.2    35    NW   5.0  12.8     246   0.00   0.00  0.235   63.6  96.6
  07/21/18 1800   92.0  57.4    31    NW   5.8  14.1     421   0.00   0.00  0.225   63.6  96.6
  07/21/18 1700   94.8  58.1    30   NNW   5.8  12.8     585   0.00   0.00  0.208   63.6  96.6
  07/21/18 1600   94.4  57.6    29   NNW   6.1  13.3     725   0.00   0.00  0.187   63.6  95.1
  07/21/18 1500   93.5  57.1    30     N   5.4  11.7     828   0.00   0.00  0.161   63.6  95.0
  07/21/18 1400   92.5  61.2    35   NNW   4.2  11.7     875   0.00   0.00  0.133   63.6  94.6
  07/21/18 1300   91.0  60.6    36   NNW   3.4   9.3     863   0.00   0.00  0.105   63.6  92.9
  07/21/18 1200   88.8  60.0    38   NNW   2.7   7.3     763   0.00   0.00  0.077   63.6  90.0
  07/21/18 1100   84.0  60.3    45   NNW   2.8   8.2     696   0.00   0.00  0.054   63.6  84.3
  07/21/18 1000   80.1  62.1    54     N   3.5   7.6     536   0.00   0.00  0.034   63.6  80.2
  07/21/18 0900   74.8  61.8    64   NNE   3.4   7.9     359   0.00   0.00  0.018   63.6  76.2
  07/21/18 0800   71.7  61.4    70     N   3.5   7.2     184   0.00   0.00  0.008   63.6  71.7
  07/21/18 0700   66.6  60.6    81     N   3.5   7.6      41   0.00   0.00  0.003   63.6  70.8
  07/21/18 0600   63.6  59.4    86     N   2.8   6.7       1   0.00   0.00  0.001   63.6  70.8
  07/21/18 0500   64.2  59.7    85     N   2.6   5.9       0   0.00   0.00  0.000   64.2  70.8
  07/21/18 0400   64.7  59.9    84     N   2.0   6.0       0   0.00   0.00  0.000   64.7  70.8
  07/21/18 0300   65.8  59.7    81     N   2.3   6.6       0   0.00   0.00  0.000   65.7  70.8
  07/21/18 0200   66.9  59.5    77     N   2.8   7.8       0   0.00   0.00  0.000   66.9  70.8
  07/21/18 0100   68.6  59.2    72     N   3.7   9.1       0   0.00   0.00  0.000   68.5  70.8
  07/21/18 0000   70.8  59.0    66   NNW   4.9  11.9       0   0.00   0.00  0.227   60.3  95.1
  07/20/18 2300   72.8  58.7    61   NNW   4.4   9.2       0   0.00   0.00  0.226   60.3  95.1
  07/20/18 2200   75.5  59.9    58    NW   5.1  12.8       0   0.00   0.00  0.225   60.3  95.1
  07/20/18 2100   78.7  61.0    55   NNW   4.9  13.0       5   0.00   0.00  0.223   60.3  95.1
  07/20/18 2000   82.1  63.8    54   NNW   4.6  12.5      88   0.00   0.00  0.221   60.3  95.1
  07/20/18 1900   87.1  65.1    48   NNW   5.0  11.7     245   0.00   0.00  0.218   60.3  95.1
  07/20/18 1800   90.7  65.8    44   NNW   6.3  15.8     394   0.00   0.00  0.209   60.3  95.1
  07/20/18 1700   89.1  66.0    47   NNW   6.4  13.0     538   0.00   0.00  0.194   60.3  95.1
  07/20/18 1600   94.9  66.3    39   NNW   6.4  14.3     751   0.00   0.00  0.175   60.3  95.1
  07/20/18 1500   94.2  65.0    38   NNW   6.0  13.4     847   0.00   0.00  0.148   60.3  94.3
  07/20/18 1400   91.0  64.1    41   NNW   5.7  14.6     899   0.00   0.00  0.120   60.3  91.8
  07/20/18 1300   85.7  63.5    47    NW   4.3  10.2     534   0.00   0.00  0.091   60.3  87.1
  07/20/18 1200   83.9  62.3    48    NW   4.6  10.1     820   0.00   0.00  0.074   60.3  85.0
  07/20/18 1100   80.8  62.3    53   NNW   4.0  10.1     717   0.00   0.00  0.049   60.3  81.0
  07/20/18 1000   77.4  61.3    58   NNW   3.8   8.2     566   0.00   0.00  0.029   60.3  77.8
  07/20/18 0900   71.3  61.2    71    NW   4.3   8.9     312   0.00   0.00  0.013   60.3  71.6
  07/20/18 0800   64.3  59.7    85   NNW   3.8   8.4     101   0.00   0.00  0.005   60.3  65.2
  07/20/18 0700   63.5  59.2    86   NNW   3.0   7.8      47   0.00   0.00  0.002   60.3  64.8
  07/20/18 0600   60.8  57.4    88     N   2.4   6.1       1   0.00   0.00  0.000   60.3  64.8
  07/20/18 0500   60.7  57.1    88   NNW   2.3   5.9       0   0.00   0.00  0.000   60.7  64.8
  07/20/18 0400   61.6  56.9    84   NNW   3.0   7.0       0   0.00   0.00  0.000   61.0  64.8
  07/20/18 0300   62.5  55.9    79     N   2.2   5.6       0   0.00   0.00  0.000   61.0  64.8
  07/20/18 0200   62.7  54.8    75   NNE   2.2   5.0       0   0.00   0.00  0.000   61.7  64.8
  07/20/18 0100   63.2  54.7    74   NNE   1.8   3.7       0   0.00   0.00  0.000   63.1  64.8
  07/20/18 0000   64.6  54.8    70   NNE   2.1   5.8       0   0.00   0.00  0.254   60.0  99.9
  07/19/18 2300   69.2  54.3    59     N   2.9   6.2       0   0.00   0.00  0.254   60.0  99.9
  07/19/18 2200   72.8  55.6    55   NNW   3.1   7.7       0   0.00   0.00  0.253   60.0  99.9
  07/19/18 2100   77.5  54.8    45    NW   3.5   8.0       7   0.00   0.00  0.253   60.0  99.9
  07/19/18 2000   83.0  55.4    39   NNW   3.7   8.4     109   0.00   0.00  0.251   60.0  99.9
  07/19/18 1900   90.6  60.3    36   NNW   4.7  10.5     286   0.00   0.00  0.248   60.0  99.9
  07/19/18 1800   94.2  63.3    36   NNW   4.9   9.8     476   0.00   0.00  0.237   60.0  99.9
  07/19/18 1700   97.0  57.5    27   NNW   5.0   9.5     651   0.00   0.00  0.219   60.0  99.9
  07/19/18 1600   99.4  64.2    32     N   4.7   9.4     791   0.00   0.00  0.196   60.0  99.9
  07/19/18 1500   97.9  61.6    30   NNW   4.1   9.0     904   0.00   0.00  0.168   60.0  99.6
  07/19/18 1400   96.5  62.9    33   NNW   4.8  11.0     951   0.00   0.00  0.138   60.0  97.2
  07/19/18 1300   90.1  62.3    40   NNW   4.2  10.3     932   0.00   0.00  0.107   60.0  91.9
  07/19/18 1200   87.8  63.3    44   NNW   3.5   8.6     816   0.00   0.00  0.078   60.0  88.2
  07/19/18 1100   81.9  62.0    51   NNW   3.7   9.0     594   0.00   0.00  0.053   60.0  83.4
  07/19/18 1000   79.0  62.8    58   NNW   4.4   9.2     588   0.00   0.00  0.035   60.0  79.7
  07/19/18 0900   73.7  62.5    68   NNW   3.9   8.7     399   0.00   0.00  0.018   60.0  75.9
  07/19/18 0800   68.3  61.3    78   NNW   3.7   9.2     211   0.00   0.00  0.008   60.0  75.9
  07/19/18 0700   64.2  59.8    86   NNW   2.2   6.1      58   0.00   0.00  0.002   60.0  75.9
  07/19/18 0600   60.8  58.7    93   NNW   2.1   5.5       1   0.00   0.00  0.001   60.0  75.9
  07/19/18 0500   60.5  58.3    92     N   1.3   3.3       0   0.00   0.00  0.000   60.0  75.9
  07/19/18 0400   61.3  58.3    90   NNW   0.8   3.6       0   0.00   0.00  0.000   61.3  75.9
  07/19/18 0300   64.3  58.6    82    NW   1.9   5.2       0   0.00   0.00  0.000   64.3  75.9
  07/19/18 0200   67.0  59.1    76   NNW   1.8   6.5       0   0.00   0.00  0.000   66.8  75.9
  07/19/18 0100   69.7  59.4    70   NNW   2.7   7.2       0   0.00   0.00  0.000   69.7  75.9
  07/19/18 0000   74.8  58.6    57   WNW   3.1   7.8       0   0.00   0.00  0.258   57.8 100.4
  07/18/18 2300   77.9  58.0    50     W   2.4  10.0       0   0.00   0.00  0.257   57.8 100.4
  07/18/18 2200   70.4  63.8    79   WNW   0.6   4.1       0   0.00   0.00  0.257   57.8 100.4
  07/18/18 2100   78.3  63.7    61    NW   2.2   6.0       5   0.00   0.00  0.257   57.8 100.4
  07/18/18 2000   84.4  66.7    55   NNW   2.7   7.1     109   0.00   0.00  0.256   57.8 100.4
  07/18/18 1900   92.1  67.6    45   NNW   4.0   8.6     292   0.00   0.00  0.254   57.8 100.4
  07/18/18 1800   97.3  69.0    40   NNW   4.3  10.3     468   0.00   0.00  0.243   57.8 100.4
  07/18/18 1700   97.9  67.0    37   NNW   4.9  10.2     593   0.00   0.00  0.226   57.8 100.4
  07/18/18 1600   98.9  64.9    33    NW   5.3  10.8     789   0.00   0.00  0.205   57.8 100.4
  07/18/18 1500   97.5  65.5    35    NW   5.1  11.1     911   0.00   0.00  0.177   57.8  98.6
  07/18/18 1400   94.7  63.5    36    NW   5.2  11.3     926   0.00   0.00  0.146   57.8  97.9
  07/18/18 1300   93.6  62.2    35    NW   4.2   9.9     907   0.00   0.00  0.115   57.8  93.6
  07/18/18 1200   91.1  63.9    41   NNW   3.3   7.8     850   0.00   0.00  0.085   57.8  91.2
  07/18/18 1100   86.8  63.0    45   NNW   3.1   7.9     732   0.00   0.00  0.059   57.8  86.9
  07/18/18 1000   80.8  61.5    52   NNW   3.3   7.2     606   0.00   0.00  0.037   57.8  81.2
  07/18/18 0900   76.0  61.6    61   NNW   3.4   9.0     416   0.00   0.00  0.020   57.8  76.0
  07/18/18 0800   68.7  60.9    76   NNW   3.6   8.6     231   0.00   0.00  0.009   57.8  75.3
  07/18/18 0700   66.1  59.1    78   NNW   1.7   5.4      71   0.00   0.00  0.003   57.8  75.3
  07/18/18 0600   57.9  56.0    93    NW   1.8   4.8       1   0.00   0.00  0.001   57.9  75.3
  07/18/18 0500   59.9  57.4    91    NW   2.0   5.3       0   0.00   0.00  0.001   59.8  75.3
  07/18/18 0400   61.3  57.4    87    NW   2.2   5.7       0   0.00   0.00  0.001   60.9  75.3
  07/18/18 0300   61.5  56.1    82     W   1.1   3.0       0   0.00   0.00  0.001   60.9  75.3
  07/18/18 0200   62.4  52.3    69     N   1.7   4.6       0   0.00   0.00  0.001   62.2  75.3
  07/18/18 0100   68.9  49.1    49   WNW   3.2   9.2       0   0.00   0.00  0.001   68.9  75.3
  07/18/18 0000   75.1  48.1    38     W   5.8  12.4       0   0.00   0.00  0.282   56.1 100.2
  07/17/18 2300   76.0  45.5    34     W   5.3  12.1       0   0.00   0.00  0.279   56.1 100.2
  07/17/18 2200   77.3  44.5    31     W   5.0  11.3       0   0.00   0.00  0.276   56.1 100.2
  07/17/18 2100   81.1  46.1    29     W   5.7  13.5       7   0.00   0.00  0.274   56.1 100.2
  07/17/18 2000   86.8  42.5    21   WNW   3.7   9.4     126   0.00   0.00  0.270   56.1 100.2
  07/17/18 1900   95.2  42.5    16    NW   3.8  12.1     305   0.00   0.00  0.266   56.1 100.2
  07/17/18 1800   98.1  63.5    32    NW   4.5  10.5     497   0.00   0.00  0.254   56.1 100.2
  07/17/18 1700   99.6  58.9    26   NNW   5.3  11.2     675   0.00   0.00  0.236   56.1 100.2
  07/17/18 1600   98.1  56.7    25   NNW   5.3  12.3     819   0.00   0.00  0.211   56.1 100.2
  07/17/18 1500   99.2  53.3    22    NW   5.9  12.5     917   0.00   0.00  0.182   56.1  99.2
  07/17/18 1400   97.5  57.6    27   NNW   5.2  12.3     966   0.00   0.00  0.150   56.1  97.5
  07/17/18 1300   92.9  60.3    34   NNW   4.3  10.3     947   0.00   0.00  0.117   56.1  94.0
  07/17/18 1200   88.1  61.4    41   NNW   3.8  10.4     859   0.00   0.00  0.087   56.1  89.4
  07/17/18 1100   82.6  59.0    45   NNW   4.0   9.3     765   0.00   0.00  0.061   56.1  83.0
  07/17/18 1000   78.5  58.1    50    NW   3.4   7.8     608   0.00   0.00  0.039   56.1  79.9
  07/17/18 0900   73.3  57.2    57   NNW   2.9   6.5     420   0.00   0.00  0.021   56.1  74.6
  07/17/18 0800   67.6  58.2    72   NNW   3.7   7.3     228   0.00   0.00  0.010   56.1  72.9
  07/17/18 0700   64.0  56.7    77     N   2.0   7.7      66   0.00   0.00  0.004   56.1  72.9
  07/17/18 0600   58.3  55.3    90     N   2.1   5.3       1   0.00   0.00  0.002   56.1  72.9
  07/17/18 0500   57.0  54.1    90    NE   1.3   4.1       0   0.00   0.00  0.002   56.1  72.9
  07/17/18 0400   57.9  53.4    85   NNE   1.3   3.2       0   0.00   0.00  0.002   57.7  72.9
  07/17/18 0300   62.0  52.1    70     N   2.2   6.5       0   0.00   0.00  0.002   61.2  72.9
  07/17/18 0200   66.6  48.0    51    NW   2.7   6.5       0   0.00   0.00  0.002   66.5  72.9
  07/17/18 0100   71.2  44.9    39   WNW   3.9   9.9       0   0.00   0.00  0.001   71.1  72.9
  07/17/18 0000   72.8  47.7    41     W   4.0  10.3       0   0.00   0.00  0.269   58.2  97.9
  07/16/18 2300   74.5  51.1    44   WNW   4.1   9.6       0   0.00   0.00  0.268   58.2  97.9
  07/16/18 2200   75.8  49.8    40   WNW   3.6   9.9       0   0.00   0.00  0.266   58.2  97.9
  07/16/18 2100   80.0  46.1    30   WNW   3.9  10.0       7   0.00   0.00  0.265   58.2  97.9
  07/16/18 2000   82.1  62.0    51   WNW   4.4  14.3     119   0.00   0.00  0.263   58.2  97.9
  07/16/18 1900   92.8  49.8    23   WNW   4.7  13.9     298   0.00   0.00  0.259   58.2  97.9
  07/16/18 1800   95.0  63.8    36   NNW   4.9  11.1     484   0.00   0.00  0.247   58.2  97.9
  07/16/18 1700   95.9  65.0    36   NNW   5.5  12.9     660   0.00   0.00  0.229   58.2  97.9
  07/16/18 1600   97.0  61.3    31   NNW   5.8  12.5     804   0.00   0.00  0.205   58.2  97.9
  07/16/18 1500   97.1  60.5    30   NNW   5.5  11.8     905   0.00   0.00  0.177   58.2  97.1
  07/16/18 1400   94.4  60.1    32    NW   5.3  12.2     950   0.00   0.00  0.146   58.2  95.2
  07/16/18 1300   91.3  61.3    37   NNW   4.8  10.4     938   0.00   0.00  0.115   58.2  92.1
  07/16/18 1200   87.5  61.9    42   NNW   4.2  11.6     816   0.00   0.00  0.085   58.2  87.8
  07/16/18 1100   82.3  59.9    47     N   3.9   9.8     751   0.00   0.00  0.060   58.2  82.3
  07/16/18 1000   77.8  59.2    53   NNW   4.1   9.1     598   0.00   0.00  0.039   58.2  77.9
  07/16/18 0900   73.0  58.1    60     N   4.5   8.9     415   0.00   0.00  0.022   58.2  73.8
  07/16/18 0800   68.5  57.8    69     N   3.8   8.2     226   0.00   0.00  0.011   58.2  73.8
  07/16/18 0700   64.2  57.4    79     N   2.0   5.5      61   0.00   0.00  0.005   58.2  73.8
  07/16/18 0600   58.3  55.4    90   NNW   1.8   4.3       1   0.00   0.00  0.003   58.2  73.8
  07/16/18 0500   59.0  55.6    88     N   1.7   6.6       0   0.00   0.00  0.003   58.9  73.8
  07/16/18 0400   60.2  55.5    85     N   2.6   7.3       0   0.00   0.00  0.003   60.2  73.8
  07/16/18 0300   63.1  54.3    73     N   3.2   8.3       0   0.00   0.00  0.003   62.6  73.8
  07/16/18 0200   64.4  52.0    64     N   2.9   6.6       0   0.00   0.00  0.002   63.8  73.8
  07/16/18 0100   72.8  47.4    40     W   5.4  13.0       0   0.00   0.00  0.002   72.8  73.8
  07/16/18 0000   73.3  48.8    42     W   6.4  14.6       0   0.00   0.00  0.277   60.8  97.1
  07/15/18 2300   74.0  51.9    46     W   5.9  14.1       0   0.00   0.00  0.275   60.8  97.1
  07/15/18 2200   74.4  52.8    47     W   5.2  11.2       0   0.00   0.00  0.273   60.8  97.1
  07/15/18 2100   77.8  46.3    33     W   5.2  15.3       7   0.00   0.00  0.270   60.8  97.1
  07/15/18 2000   81.8  49.0    32     W   7.2  16.0     123   0.00   0.00  0.267   60.8  97.1
  07/15/18 1900   88.1  46.3    24     W   6.1  13.9     303   0.00   0.00  0.262   60.8  97.1
  07/15/18 1800   92.8  50.0    23     W   5.8  13.5     493   0.00   0.00  0.248   60.8  97.1
  07/15/18 1700   96.0  62.6    33   NNW   4.1   9.1     661   0.00   0.00  0.229   60.8  96.5
  07/15/18 1600   94.5  63.9    37   NNW   5.1  12.5     800   0.00   0.00  0.207   60.8  95.5
  07/15/18 1500   93.5  61.2    34   NNW   4.8  13.0     903   0.00   0.00  0.180   60.8  94.3
  07/15/18 1400   90.8  63.6    41   NNW   4.7  11.2     948   0.00   0.00  0.151   60.8  92.6
  07/15/18 1300   90.4  61.0    38   NNW   4.3   9.4     931   0.00   0.00  0.120   60.8  90.7
  07/15/18 1200   86.3  60.9    43    NW   3.9   9.2     849   0.00   0.00  0.091   60.8  86.7
  07/15/18 1100   81.1  58.9    47   NNW   3.9   8.2     748   0.00   0.00  0.065   60.8  82.5
  07/15/18 1000   78.3  58.7    51   NNW   4.2   9.8     592   0.00   0.00  0.044   60.8  78.3
  07/15/18 0900   73.5  56.5    55    NW   4.1   8.8     410   0.00   0.00  0.027   60.8  74.0
  07/15/18 0800   70.1  55.0    59   WNW   4.0  11.1     221   0.00   0.00  0.015   60.8  71.0
  07/15/18 0700   66.3  54.0    65    NW   2.9  10.4      55   0.00   0.00  0.008   60.8  70.9
  07/15/18 0600   61.5  54.4    78    NW   3.7  11.1       1   0.00   0.00  0.006   60.9  70.9
  07/15/18 0500   61.8  54.5    77   WNW   5.1  12.1       0   0.00   0.00  0.005   61.8  70.9
  07/15/18 0400   63.5  54.1    71   WNW   5.6  12.6       0   0.00   0.00  0.004   63.5  70.9
  07/15/18 0300   65.0  54.0    67   WNW   6.5  15.0       0   0.00   0.00  0.004   65.0  70.9